Aeroporto :
LOGIN :

Iscrizione | Disclaimer

   EN    FR    IT 

 










Sommario :    VFR   VFR Marginale   IFR   IFR Intensivo   IFR Molto Intensivo
Visibilità : 
Base nubi : 
>= 8 km
>= 3000ft
5 / 8 km
1000 / 3000 ft
1500m / 5 km
500 / 1000 ft
800 / 1500m
200 / 500 ft
< 800m
< 200 ft
Simboli :   Temporali  Nebbia  Neve Forte  Precipitazioni Forti  Vento > 20 kt
SIGMETs :   Varie  Temporali  Ghiacco  Turbolenza  Onda orograficha  Ceneri Vulcaniche






- Altitudine del aeroporto : 1276 ft
- Codice IATA : STR


EDDS - Stuttgart

ULTIMO METAR :
  • 172220Z 19003KT 9999 -RA SCT011 BKN029 03/01 Q1035

METARs OBSOLETI :
  • 172150Z 24004KT 9999 FEW012 SCT030 BKN048 03/01 Q1035
  • 172120Z 23003KT 180V260 9999 FEW012 SCT014 BKN027 03/01 Q1035
  • 172050Z 22004KT 180V270 9999 -RA FEW012 SCT016 BKN029 03/01 Q1035 NOSIG
  • 172020Z 22003KT 180V250 9999 -RA SCT012 BKN016 03/01 Q1035 NOSIG
  • 171950Z 24003KT 190V280 9999 -RADZ SCT012 BKN016 03/01 Q1035 TEMPO BKN012

TAF AMD TAF EDDS
Valido dal 17 a 21 ore il 18 a 18 ore UTC


172103Z 1721/1818 24006KT 9999 FEW012 SCT015 OVC030
BECMG 1722/1724 OVC012
TEMPO 1800/1810 OVC008
PROB30
TEMPO 1804/1809 3000 -DZ OVC004
BECMG 1808/1810 05006KT
BECMG 1810/1812 SCT012



MetMap, La meteo Aeronautica in un colpo d'occhio ! - Copyright ORBIFLY Dicembre 2007 - Disclaimer

ORBIFLY MET'MAP TEAM :

Programmazione e sviluppo : Alexandra Zaïnal
Concezione : Baudouin d'Aumeries
Aiuto per la programmazione : Marc-Olivier Méhu
Supporto tecnico e logistico : Manuel Goepfert
Aiuto per la traduzione : Arnaldo La Scala

Contatto : metmap@orbifly.com




FONTI E CREDITI :

   NOAA